<?xml version="1.0" encoding="UTF-8" standalone="no" ?>
<gpx xmlns="http://www.topografix.com/GPX/1/1" xmlns:xsi="http://www.w3.org/2001/XMLSchema-instance" xsi:schemaLocation="http://www.topografix.com/GPX/1/1 http://www.topografix.com/GPX/1/1/gpx.xsd" version="1.1" creator="VisuGPX - https://www.visugpx.com">
  <metadata>
    <name>rando st valentin 2010</name>
    <desc><![CDATA[petite rando avec les enfants Audrey,Valentin,Anas,Alexis et la maman Lydie]]></desc>
  </metadata>
  <wpt lat="47.82177" lon="3.30907">
    <ele>309</ele>
  </wpt>
  <wpt lat="47.8221" lon="3.3086">
    <ele>233</ele>
    <name><![CDATA[WP 140210]]></name>
  </wpt>
  <wpt lat="47.82177" lon="3.30858">
    <ele>211</ele>
  </wpt>
  <trk>
    <name><![CDATA[rando st valentin 2010_1]]></name>
    <trkseg>
      <trkpt lat="47.82177" lon="3.30907">
        <ele>309</ele>
        <time>2010-02-14T14:52:27Z</time>
      </trkpt>
      <trkpt lat="47.82209" lon="3.30861">
        <ele>224</ele>
        <time>2010-02-14T14:53:03Z</time>
      </trkpt>
      <trkpt lat="47.82219" lon="3.30859">
        <ele>231</ele>
        <time>2010-02-14T14:58:14Z</time>
      </trkpt>
      <trkpt lat="47.82209" lon="3.30862">
        <ele>242</ele>
        <time>2010-02-14T14:59:22Z</time>
      </trkpt>
      <trkpt lat="47.82206" lon="3.30849">
        <ele>218</ele>
        <time>2010-02-14T15:01:44Z</time>
      </trkpt>
      <trkpt lat="47.8221" lon="3.3086">
        <ele>233</ele>
        <time>2010-02-14T15:01:06Z</time>
      </trkpt>
      <trkpt lat="47.82204" lon="3.30849">
        <ele>223</ele>
        <time>2010-02-14T15:02:02Z</time>
      </trkpt>
      <trkpt lat="47.82197" lon="3.30859">
        <ele>223</ele>
        <time>2010-02-14T15:02:28Z</time>
      </trkpt>
      <trkpt lat="47.82205" lon="3.3085">
        <ele>213</ele>
        <time>2010-02-14T15:02:48Z</time>
      </trkpt>
      <trkpt lat="47.82197" lon="3.30857">
        <ele>213</ele>
        <time>2010-02-14T15:03:34Z</time>
      </trkpt>
      <trkpt lat="47.82187" lon="3.30856">
        <ele>213</ele>
        <time>2010-02-14T15:03:44Z</time>
      </trkpt>
      <trkpt lat="47.82178" lon="3.30851">
        <ele>213</ele>
        <time>2010-02-14T15:03:54Z</time>
      </trkpt>
      <trkpt lat="47.82168" lon="3.3085">
        <ele>213</ele>
        <time>2010-02-14T15:04:06Z</time>
      </trkpt>
      <trkpt lat="47.82159" lon="3.30844">
        <ele>213</ele>
        <time>2010-02-14T15:04:17Z</time>
      </trkpt>
      <trkpt lat="47.8215" lon="3.3084">
        <ele>220</ele>
        <time>2010-02-14T15:04:25Z</time>
      </trkpt>
      <trkpt lat="47.82141" lon="3.30832">
        <ele>220</ele>
        <time>2010-02-14T15:04:33Z</time>
      </trkpt>
      <trkpt lat="47.82135" lon="3.30821">
        <ele>220</ele>
        <time>2010-02-14T15:05:13Z</time>
      </trkpt>
      <trkpt lat="47.82125" lon="3.30821">
        <ele>220</ele>
        <time>2010-02-14T15:05:23Z</time>
      </trkpt>
      <trkpt lat="47.82119" lon="3.3081">
        <ele>225</ele>
        <time>2010-02-14T15:05:38Z</time>
      </trkpt>
      <trkpt lat="47.8211" lon="3.30806">
        <ele>225</ele>
        <time>2010-02-14T15:05:46Z</time>
      </trkpt>
      <trkpt lat="47.82101" lon="3.30799">
        <ele>225</ele>
        <time>2010-02-14T15:05:54Z</time>
      </trkpt>
      <trkpt lat="47.82092" lon="3.30796">
        <ele>225</ele>
        <time>2010-02-14T15:06:03Z</time>
      </trkpt>
      <trkpt lat="47.82084" lon="3.30788">
        <ele>225</ele>
        <time>2010-02-14T15:06:12Z</time>
      </trkpt>
      <trkpt lat="47.82075" lon="3.30782">
        <ele>225</ele>
        <time>2010-02-14T15:06:20Z</time>
      </trkpt>
      <trkpt lat="47.82066" lon="3.30778">
        <ele>225</ele>
        <time>2010-02-14T15:06:31Z</time>
      </trkpt>
      <trkpt lat="47.82057" lon="3.30771">
        <ele>225</ele>
        <time>2010-02-14T15:06:44Z</time>
      </trkpt>
      <trkpt lat="47.82047" lon="3.30767">
        <ele>225</ele>
        <time>2010-02-14T15:06:54Z</time>
      </trkpt>
      <trkpt lat="47.82038" lon="3.30763">
        <ele>225</ele>
        <time>2010-02-14T15:07:04Z</time>
      </trkpt>
      <trkpt lat="47.82029" lon="3.30756">
        <ele>218</ele>
        <time>2010-02-14T15:07:15Z</time>
      </trkpt>
      <trkpt lat="47.8202" lon="3.30751">
        <ele>221</ele>
        <time>2010-02-14T15:07:27Z</time>
      </trkpt>
      <trkpt lat="47.8201" lon="3.30746">
        <ele>221</ele>
        <time>2010-02-14T15:07:35Z</time>
      </trkpt>
      <trkpt lat="47.82002" lon="3.30737">
        <ele>221</ele>
        <time>2010-02-14T15:07:47Z</time>
      </trkpt>
      <trkpt lat="47.82001" lon="3.30723">
        <ele>221</ele>
        <time>2010-02-14T15:08:17Z</time>
      </trkpt>
      <trkpt lat="47.81999" lon="3.30709">
        <ele>221</ele>
        <time>2010-02-14T15:08:29Z</time>
      </trkpt>
      <trkpt lat="47.81996" lon="3.30693">
        <ele>227</ele>
        <time>2010-02-14T15:08:41Z</time>
      </trkpt>
      <trkpt lat="47.81991" lon="3.3068">
        <ele>227</ele>
        <time>2010-02-14T15:08:50Z</time>
      </trkpt>
      <trkpt lat="47.81986" lon="3.30668">
        <ele>222</ele>
        <time>2010-02-14T15:08:58Z</time>
      </trkpt>
      <trkpt lat="47.81981" lon="3.30655">
        <ele>222</ele>
        <time>2010-02-14T15:09:08Z</time>
      </trkpt>
      <trkpt lat="47.81976" lon="3.30641">
        <ele>222</ele>
        <time>2010-02-14T15:09:19Z</time>
      </trkpt>
      <trkpt lat="47.81971" lon="3.30629">
        <ele>222</ele>
        <time>2010-02-14T15:09:30Z</time>
      </trkpt>
      <trkpt lat="47.81967" lon="3.30616">
        <ele>222</ele>
        <time>2010-02-14T15:09:38Z</time>
      </trkpt>
      <trkpt lat="47.81964" lon="3.30603">
        <ele>222</ele>
        <time>2010-02-14T15:09:51Z</time>
      </trkpt>
      <trkpt lat="47.81961" lon="3.30588">
        <ele>222</ele>
        <time>2010-02-14T15:10:01Z</time>
      </trkpt>
      <trkpt lat="47.8196" lon="3.30574">
        <ele>222</ele>
        <time>2010-02-14T15:10:10Z</time>
      </trkpt>
      <trkpt lat="47.81959" lon="3.30559">
        <ele>222</ele>
        <time>2010-02-14T15:10:22Z</time>
      </trkpt>
      <trkpt lat="47.8196" lon="3.30545">
        <ele>222</ele>
        <time>2010-02-14T15:10:33Z</time>
      </trkpt>
      <trkpt lat="47.81961" lon="3.30531">
        <ele>222</ele>
        <time>2010-02-14T15:10:45Z</time>
      </trkpt>
      <trkpt lat="47.81964" lon="3.30517">
        <ele>222</ele>
        <time>2010-02-14T15:10:59Z</time>
      </trkpt>
      <trkpt lat="47.81964" lon="3.30503">
        <ele>222</ele>
        <time>2010-02-14T15:11:15Z</time>
      </trkpt>
      <trkpt lat="47.81966" lon="3.30488">
        <ele>222</ele>
        <time>2010-02-14T15:11:27Z</time>
      </trkpt>
      <trkpt lat="47.81971" lon="3.30475">
        <ele>216</ele>
        <time>2010-02-14T15:11:40Z</time>
      </trkpt>
      <trkpt lat="47.81972" lon="3.30461">
        <ele>216</ele>
        <time>2010-02-14T15:11:50Z</time>
      </trkpt>
      <trkpt lat="47.81972" lon="3.30445">
        <ele>216</ele>
        <time>2010-02-14T15:11:59Z</time>
      </trkpt>
      <trkpt lat="47.81974" lon="3.30431">
        <ele>216</ele>
        <time>2010-02-14T15:12:09Z</time>
      </trkpt>
      <trkpt lat="47.81975" lon="3.30416">
        <ele>216</ele>
        <time>2010-02-14T15:12:26Z</time>
      </trkpt>
      <trkpt lat="47.81977" lon="3.30401">
        <ele>216</ele>
        <time>2010-02-14T15:12:34Z</time>
      </trkpt>
      <trkpt lat="47.81978" lon="3.30387">
        <ele>216</ele>
        <time>2010-02-14T15:12:43Z</time>
      </trkpt>
      <trkpt lat="47.8198" lon="3.30373">
        <ele>216</ele>
        <time>2010-02-14T15:12:53Z</time>
      </trkpt>
      <trkpt lat="47.81981" lon="3.30357">
        <ele>216</ele>
        <time>2010-02-14T15:13:02Z</time>
      </trkpt>
      <trkpt lat="47.81986" lon="3.30345">
        <ele>216</ele>
        <time>2010-02-14T15:13:13Z</time>
      </trkpt>
      <trkpt lat="47.8199" lon="3.30329">
        <ele>216</ele>
        <time>2010-02-14T15:13:23Z</time>
      </trkpt>
      <trkpt lat="47.81998" lon="3.3032">
        <ele>216</ele>
        <time>2010-02-14T15:13:33Z</time>
      </trkpt>
      <trkpt lat="47.82001" lon="3.30306">
        <ele>216</ele>
        <time>2010-02-14T15:13:46Z</time>
      </trkpt>
      <trkpt lat="47.82" lon="3.30292">
        <ele>223</ele>
        <time>2010-02-14T15:14:03Z</time>
      </trkpt>
      <trkpt lat="47.81997" lon="3.30278">
        <ele>223</ele>
        <time>2010-02-14T15:14:14Z</time>
      </trkpt>
      <trkpt lat="47.81992" lon="3.30264">
        <ele>223</ele>
        <time>2010-02-14T15:14:24Z</time>
      </trkpt>
      <trkpt lat="47.81986" lon="3.30251">
        <ele>223</ele>
        <time>2010-02-14T15:14:36Z</time>
      </trkpt>
      <trkpt lat="47.81983" lon="3.30238">
        <ele>223</ele>
        <time>2010-02-14T15:14:48Z</time>
      </trkpt>
      <trkpt lat="47.81977" lon="3.30224">
        <ele>223</ele>
        <time>2010-02-14T15:17:11Z</time>
      </trkpt>
      <trkpt lat="47.81972" lon="3.30212">
        <ele>223</ele>
        <time>2010-02-14T15:17:24Z</time>
      </trkpt>
      <trkpt lat="47.81969" lon="3.30198">
        <ele>230</ele>
        <time>2010-02-14T15:17:38Z</time>
      </trkpt>
      <trkpt lat="47.81962" lon="3.30188">
        <ele>230</ele>
        <time>2010-02-14T15:17:45Z</time>
      </trkpt>
      <trkpt lat="47.81967" lon="3.30174">
        <ele>230</ele>
        <time>2010-02-14T15:17:56Z</time>
      </trkpt>
      <trkpt lat="47.81967" lon="3.3016">
        <ele>230</ele>
        <time>2010-02-14T15:18:05Z</time>
      </trkpt>
      <trkpt lat="47.81968" lon="3.30145">
        <ele>230</ele>
        <time>2010-02-14T15:18:16Z</time>
      </trkpt>
      <trkpt lat="47.81966" lon="3.30132">
        <ele>223</ele>
        <time>2010-02-14T15:18:28Z</time>
      </trkpt>
      <trkpt lat="47.81963" lon="3.30118">
        <ele>223</ele>
        <time>2010-02-14T15:18:37Z</time>
      </trkpt>
      <trkpt lat="47.81966" lon="3.30105">
        <ele>229</ele>
        <time>2010-02-14T15:18:51Z</time>
      </trkpt>
      <trkpt lat="47.81964" lon="3.3009">
        <ele>229</ele>
        <time>2010-02-14T15:19:07Z</time>
      </trkpt>
      <trkpt lat="47.81965" lon="3.30076">
        <ele>234</ele>
        <time>2010-02-14T15:19:20Z</time>
      </trkpt>
      <trkpt lat="47.81963" lon="3.30062">
        <ele>234</ele>
        <time>2010-02-14T15:19:30Z</time>
      </trkpt>
      <trkpt lat="47.81962" lon="3.30046">
        <ele>234</ele>
        <time>2010-02-14T15:19:41Z</time>
      </trkpt>
      <trkpt lat="47.81961" lon="3.30032">
        <ele>234</ele>
        <time>2010-02-14T15:19:51Z</time>
      </trkpt>
      <trkpt lat="47.8196" lon="3.30018">
        <ele>234</ele>
        <time>2010-02-14T15:20:01Z</time>
      </trkpt>
      <trkpt lat="47.81959" lon="3.30003">
        <ele>234</ele>
        <time>2010-02-14T15:20:16Z</time>
      </trkpt>
      <trkpt lat="47.81959" lon="3.29989">
        <ele>240</ele>
        <time>2010-02-14T15:20:30Z</time>
      </trkpt>
      <trkpt lat="47.81957" lon="3.29975">
        <ele>240</ele>
        <time>2010-02-14T15:20:40Z</time>
      </trkpt>
      <trkpt lat="47.81956" lon="3.2996">
        <ele>240</ele>
        <time>2010-02-14T15:20:53Z</time>
      </trkpt>
      <trkpt lat="47.81954" lon="3.29945">
        <ele>240</ele>
        <time>2010-02-14T15:22:30Z</time>
      </trkpt>
      <trkpt lat="47.81953" lon="3.2993">
        <ele>240</ele>
        <time>2010-02-14T15:22:38Z</time>
      </trkpt>
      <trkpt lat="47.81952" lon="3.29915">
        <ele>240</ele>
        <time>2010-02-14T15:22:47Z</time>
      </trkpt>
      <trkpt lat="47.81952" lon="3.29901">
        <ele>240</ele>
        <time>2010-02-14T15:22:56Z</time>
      </trkpt>
      <trkpt lat="47.81951" lon="3.29886">
        <ele>240</ele>
        <time>2010-02-14T15:23:07Z</time>
      </trkpt>
      <trkpt lat="47.81951" lon="3.29871">
        <ele>240</ele>
        <time>2010-02-14T15:23:18Z</time>
      </trkpt>
      <trkpt lat="47.8195" lon="3.29856">
        <ele>245</ele>
        <time>2010-02-14T15:23:29Z</time>
      </trkpt>
      <trkpt lat="47.81949" lon="3.29842">
        <ele>245</ele>
        <time>2010-02-14T15:23:41Z</time>
      </trkpt>
      <trkpt lat="47.81948" lon="3.29826">
        <ele>245</ele>
        <time>2010-02-14T15:23:51Z</time>
      </trkpt>
      <trkpt lat="47.81946" lon="3.29811">
        <ele>245</ele>
        <time>2010-02-14T15:24:00Z</time>
      </trkpt>
      <trkpt lat="47.81944" lon="3.29795">
        <ele>245</ele>
        <time>2010-02-14T15:24:09Z</time>
      </trkpt>
      <trkpt lat="47.81943" lon="3.29781">
        <ele>245</ele>
        <time>2010-02-14T15:24:19Z</time>
      </trkpt>
      <trkpt lat="47.8194" lon="3.29767">
        <ele>245</ele>
        <time>2010-02-14T15:24:36Z</time>
      </trkpt>
      <trkpt lat="47.81941" lon="3.29752">
        <ele>245</ele>
        <time>2010-02-14T15:24:46Z</time>
      </trkpt>
      <trkpt lat="47.81943" lon="3.29737">
        <ele>245</ele>
        <time>2010-02-14T15:24:56Z</time>
      </trkpt>
      <trkpt lat="47.81941" lon="3.29723">
        <ele>245</ele>
        <time>2010-02-14T15:25:09Z</time>
      </trkpt>
      <trkpt lat="47.81943" lon="3.29709">
        <ele>245</ele>
        <time>2010-02-14T15:25:21Z</time>
      </trkpt>
      <trkpt lat="47.81943" lon="3.29693">
        <ele>245</ele>
        <time>2010-02-14T15:25:35Z</time>
      </trkpt>
      <trkpt lat="47.8194" lon="3.2968">
        <ele>245</ele>
        <time>2010-02-14T15:25:44Z</time>
      </trkpt>
      <trkpt lat="47.81941" lon="3.29666">
        <ele>245</ele>
        <time>2010-02-14T15:25:52Z</time>
      </trkpt>
      <trkpt lat="47.8194" lon="3.2965">
        <ele>245</ele>
        <time>2010-02-14T15:26:05Z</time>
      </trkpt>
      <trkpt lat="47.81936" lon="3.29638">
        <ele>245</ele>
        <time>2010-02-14T15:26:17Z</time>
      </trkpt>
      <trkpt lat="47.81926" lon="3.29635">
        <ele>245</ele>
        <time>2010-02-14T15:26:29Z</time>
      </trkpt>
      <trkpt lat="47.81917" lon="3.29631">
        <ele>245</ele>
        <time>2010-02-14T15:26:39Z</time>
      </trkpt>
      <trkpt lat="47.81906" lon="3.2963">
        <ele>245</ele>
        <time>2010-02-14T15:26:56Z</time>
      </trkpt>
      <trkpt lat="47.81897" lon="3.29628">
        <ele>245</ele>
        <time>2010-02-14T15:27:04Z</time>
      </trkpt>
      <trkpt lat="47.81888" lon="3.29624">
        <ele>245</ele>
        <time>2010-02-14T15:27:12Z</time>
      </trkpt>
      <trkpt lat="47.81885" lon="3.2961">
        <ele>245</ele>
        <time>2010-02-14T15:27:41Z</time>
      </trkpt>
      <trkpt lat="47.8188" lon="3.29597">
        <ele>245</ele>
        <time>2010-02-14T15:27:53Z</time>
      </trkpt>
      <trkpt lat="47.81874" lon="3.29586">
        <ele>245</ele>
        <time>2010-02-14T15:28:02Z</time>
      </trkpt>
      <trkpt lat="47.81871" lon="3.2957">
        <ele>245</ele>
        <time>2010-02-14T15:28:13Z</time>
      </trkpt>
      <trkpt lat="47.81867" lon="3.29558">
        <ele>245</ele>
        <time>2010-02-14T15:28:19Z</time>
      </trkpt>
      <trkpt lat="47.81863" lon="3.29544">
        <ele>245</ele>
        <time>2010-02-14T15:28:26Z</time>
      </trkpt>
      <trkpt lat="47.81857" lon="3.29533">
        <ele>245</ele>
        <time>2010-02-14T15:28:37Z</time>
      </trkpt>
      <trkpt lat="47.81854" lon="3.29519">
        <ele>245</ele>
        <time>2010-02-14T15:28:57Z</time>
      </trkpt>
      <trkpt lat="47.81848" lon="3.29507">
        <ele>245</ele>
        <time>2010-02-14T15:29:09Z</time>
      </trkpt>
      <trkpt lat="47.81847" lon="3.29492">
        <ele>245</ele>
        <time>2010-02-14T15:29:21Z</time>
      </trkpt>
      <trkpt lat="47.81846" lon="3.29478">
        <ele>245</ele>
        <time>2010-02-14T15:29:31Z</time>
      </trkpt>
      <trkpt lat="47.81848" lon="3.29463">
        <ele>245</ele>
        <time>2010-02-14T15:29:42Z</time>
      </trkpt>
      <trkpt lat="47.81844" lon="3.2945">
        <ele>245</ele>
        <time>2010-02-14T15:29:52Z</time>
      </trkpt>
      <trkpt lat="47.81844" lon="3.29436">
        <ele>245</ele>
        <time>2010-02-14T15:30:01Z</time>
      </trkpt>
      <trkpt lat="47.81842" lon="3.29422">
        <ele>245</ele>
        <time>2010-02-14T15:30:10Z</time>
      </trkpt>
      <trkpt lat="47.81837" lon="3.2941">
        <ele>245</ele>
        <time>2010-02-14T15:30:19Z</time>
      </trkpt>
      <trkpt lat="47.81833" lon="3.29396">
        <ele>245</ele>
        <time>2010-02-14T15:30:31Z</time>
      </trkpt>
      <trkpt lat="47.81827" lon="3.29386">
        <ele>238</ele>
        <time>2010-02-14T15:30:39Z</time>
      </trkpt>
      <trkpt lat="47.81823" lon="3.29372">
        <ele>238</ele>
        <time>2010-02-14T15:30:55Z</time>
      </trkpt>
      <trkpt lat="47.81818" lon="3.29359">
        <ele>238</ele>
        <time>2010-02-14T15:31:05Z</time>
      </trkpt>
      <trkpt lat="47.81813" lon="3.29347">
        <ele>238</ele>
        <time>2010-02-14T15:31:16Z</time>
      </trkpt>
      <trkpt lat="47.81808" lon="3.29334">
        <ele>238</ele>
        <time>2010-02-14T15:31:24Z</time>
      </trkpt>
      <trkpt lat="47.81805" lon="3.29321">
        <ele>238</ele>
        <time>2010-02-14T15:31:32Z</time>
      </trkpt>
      <trkpt lat="47.81802" lon="3.29306">
        <ele>245</ele>
        <time>2010-02-14T15:31:51Z</time>
      </trkpt>
      <trkpt lat="47.81798" lon="3.29294">
        <ele>238</ele>
        <time>2010-02-14T15:31:59Z</time>
      </trkpt>
      <trkpt lat="47.81799" lon="3.29279">
        <ele>238</ele>
        <time>2010-02-14T15:32:11Z</time>
      </trkpt>
      <trkpt lat="47.81797" lon="3.29265">
        <ele>238</ele>
        <time>2010-02-14T15:32:20Z</time>
      </trkpt>
      <trkpt lat="47.81794" lon="3.29251">
        <ele>231</ele>
        <time>2010-02-14T15:32:34Z</time>
      </trkpt>
      <trkpt lat="47.81796" lon="3.29236">
        <ele>237</ele>
        <time>2010-02-14T15:32:43Z</time>
      </trkpt>
      <trkpt lat="47.81795" lon="3.29222">
        <ele>245</ele>
        <time>2010-02-14T15:32:59Z</time>
      </trkpt>
      <trkpt lat="47.81789" lon="3.2921">
        <ele>245</ele>
        <time>2010-02-14T15:33:10Z</time>
      </trkpt>
      <trkpt lat="47.81783" lon="3.29198">
        <ele>235</ele>
        <time>2010-02-14T15:33:21Z</time>
      </trkpt>
      <trkpt lat="47.81778" lon="3.29185">
        <ele>235</ele>
        <time>2010-02-14T15:33:34Z</time>
      </trkpt>
      <trkpt lat="47.81773" lon="3.29172">
        <ele>235</ele>
        <time>2010-02-14T15:33:47Z</time>
      </trkpt>
      <trkpt lat="47.81768" lon="3.29158">
        <ele>235</ele>
        <time>2010-02-14T15:34:21Z</time>
      </trkpt>
      <trkpt lat="47.81762" lon="3.29145">
        <ele>235</ele>
        <time>2010-02-14T15:35:10Z</time>
      </trkpt>
      <trkpt lat="47.81759" lon="3.29131">
        <ele>235</ele>
        <time>2010-02-14T15:35:18Z</time>
      </trkpt>
      <trkpt lat="47.81757" lon="3.29116">
        <ele>235</ele>
        <time>2010-02-14T15:35:34Z</time>
      </trkpt>
      <trkpt lat="47.81751" lon="3.29105">
        <ele>235</ele>
        <time>2010-02-14T15:35:57Z</time>
      </trkpt>
      <trkpt lat="47.81749" lon="3.2909">
        <ele>235</ele>
        <time>2010-02-14T15:36:13Z</time>
      </trkpt>
      <trkpt lat="47.81745" lon="3.29076">
        <ele>235</ele>
        <time>2010-02-14T15:36:23Z</time>
      </trkpt>
      <trkpt lat="47.81741" lon="3.29063">
        <ele>235</ele>
        <time>2010-02-14T15:36:37Z</time>
      </trkpt>
      <trkpt lat="47.81736" lon="3.2905">
        <ele>235</ele>
        <time>2010-02-14T15:37:17Z</time>
      </trkpt>
      <trkpt lat="47.8173" lon="3.29039">
        <ele>235</ele>
        <time>2010-02-14T15:37:52Z</time>
      </trkpt>
      <trkpt lat="47.81724" lon="3.29026">
        <ele>235</ele>
        <time>2010-02-14T15:37:59Z</time>
      </trkpt>
      <trkpt lat="47.81717" lon="3.29017">
        <ele>235</ele>
        <time>2010-02-14T15:38:06Z</time>
      </trkpt>
      <trkpt lat="47.81709" lon="3.29007">
        <ele>235</ele>
        <time>2010-02-14T15:38:14Z</time>
      </trkpt>
      <trkpt lat="47.81702" lon="3.28996">
        <ele>235</ele>
        <time>2010-02-14T15:38:22Z</time>
      </trkpt>
      <trkpt lat="47.81695" lon="3.28987">
        <ele>235</ele>
        <time>2010-02-14T15:38:30Z</time>
      </trkpt>
      <trkpt lat="47.81689" lon="3.28977">
        <ele>235</ele>
        <time>2010-02-14T15:38:43Z</time>
      </trkpt>
      <trkpt lat="47.81683" lon="3.28965">
        <ele>235</ele>
        <time>2010-02-14T15:38:57Z</time>
      </trkpt>
      <trkpt lat="47.81678" lon="3.28952">
        <ele>235</ele>
        <time>2010-02-14T15:39:09Z</time>
      </trkpt>
      <trkpt lat="47.81675" lon="3.28939">
        <ele>235</ele>
        <time>2010-02-14T15:39:24Z</time>
      </trkpt>
      <trkpt lat="47.81674" lon="3.28924">
        <ele>235</ele>
        <time>2010-02-14T15:39:36Z</time>
      </trkpt>
      <trkpt lat="47.81671" lon="3.2891">
        <ele>235</ele>
        <time>2010-02-14T15:39:46Z</time>
      </trkpt>
      <trkpt lat="47.81669" lon="3.28894">
        <ele>235</ele>
        <time>2010-02-14T15:40:01Z</time>
      </trkpt>
      <trkpt lat="47.81669" lon="3.2888">
        <ele>235</ele>
        <time>2010-02-14T15:40:16Z</time>
      </trkpt>
      <trkpt lat="47.81667" lon="3.28866">
        <ele>230</ele>
        <time>2010-02-14T15:40:32Z</time>
      </trkpt>
      <trkpt lat="47.81662" lon="3.28854">
        <ele>230</ele>
        <time>2010-02-14T15:40:42Z</time>
      </trkpt>
      <trkpt lat="47.81658" lon="3.28839">
        <ele>237</ele>
        <time>2010-02-14T15:40:55Z</time>
      </trkpt>
      <trkpt lat="47.81655" lon="3.28826">
        <ele>237</ele>
        <time>2010-02-14T15:41:02Z</time>
      </trkpt>
      <trkpt lat="47.81653" lon="3.28811">
        <ele>237</ele>
        <time>2010-02-14T15:41:12Z</time>
      </trkpt>
      <trkpt lat="47.81652" lon="3.28796">
        <ele>237</ele>
        <time>2010-02-14T15:41:21Z</time>
      </trkpt>
      <trkpt lat="47.81658" lon="3.28785">
        <ele>242</ele>
        <time>2010-02-14T15:41:34Z</time>
      </trkpt>
      <trkpt lat="47.81661" lon="3.28771">
        <ele>242</ele>
        <time>2010-02-14T15:41:47Z</time>
      </trkpt>
      <trkpt lat="47.81663" lon="3.28756">
        <ele>237</ele>
        <time>2010-02-14T15:41:57Z</time>
      </trkpt>
      <trkpt lat="47.81662" lon="3.28741">
        <ele>237</ele>
        <time>2010-02-14T15:42:13Z</time>
      </trkpt>
      <trkpt lat="47.81664" lon="3.28727">
        <ele>237</ele>
        <time>2010-02-14T15:42:31Z</time>
      </trkpt>
      <trkpt lat="47.81663" lon="3.28712">
        <ele>237</ele>
        <time>2010-02-14T15:42:38Z</time>
      </trkpt>
      <trkpt lat="47.81665" lon="3.28698">
        <ele>237</ele>
        <time>2010-02-14T15:42:52Z</time>
      </trkpt>
      <trkpt lat="47.81662" lon="3.28685">
        <ele>237</ele>
        <time>2010-02-14T15:43:02Z</time>
      </trkpt>
      <trkpt lat="47.81663" lon="3.2867">
        <ele>237</ele>
        <time>2010-02-14T15:43:12Z</time>
      </trkpt>
      <trkpt lat="47.81658" lon="3.28657">
        <ele>237</ele>
        <time>2010-02-14T15:43:21Z</time>
      </trkpt>
      <trkpt lat="47.81654" lon="3.28643">
        <ele>237</ele>
        <time>2010-02-14T15:43:35Z</time>
      </trkpt>
      <trkpt lat="47.8165" lon="3.28631">
        <ele>237</ele>
        <time>2010-02-14T15:43:48Z</time>
      </trkpt>
      <trkpt lat="47.81647" lon="3.28617">
        <ele>237</ele>
        <time>2010-02-14T15:43:58Z</time>
      </trkpt>
      <trkpt lat="47.81644" lon="3.28602">
        <ele>229</ele>
        <time>2010-02-14T15:44:09Z</time>
      </trkpt>
      <trkpt lat="47.81643" lon="3.28588">
        <ele>229</ele>
        <time>2010-02-14T15:44:24Z</time>
      </trkpt>
      <trkpt lat="47.81641" lon="3.28573">
        <ele>229</ele>
        <time>2010-02-14T15:44:34Z</time>
      </trkpt>
      <trkpt lat="47.81639" lon="3.2856">
        <ele>229</ele>
        <time>2010-02-14T15:44:44Z</time>
      </trkpt>
      <trkpt lat="47.81638" lon="3.28545">
        <ele>229</ele>
        <time>2010-02-14T15:44:55Z</time>
      </trkpt>
      <trkpt lat="47.81637" lon="3.2853">
        <ele>229</ele>
        <time>2010-02-14T15:45:07Z</time>
      </trkpt>
      <trkpt lat="47.8164" lon="3.28516">
        <ele>223</ele>
        <time>2010-02-14T15:45:16Z</time>
      </trkpt>
      <trkpt lat="47.81645" lon="3.28503">
        <ele>223</ele>
        <time>2010-02-14T15:45:25Z</time>
      </trkpt>
      <trkpt lat="47.81653" lon="3.28494">
        <ele>223</ele>
        <time>2010-02-14T15:45:34Z</time>
      </trkpt>
      <trkpt lat="47.8166" lon="3.28484">
        <ele>223</ele>
        <time>2010-02-14T15:45:44Z</time>
      </trkpt>
      <trkpt lat="47.81664" lon="3.2847">
        <ele>223</ele>
        <time>2010-02-14T15:46:01Z</time>
      </trkpt>
      <trkpt lat="47.8167" lon="3.2846">
        <ele>223</ele>
        <time>2010-02-14T15:46:09Z</time>
      </trkpt>
      <trkpt lat="47.81675" lon="3.28447">
        <ele>223</ele>
        <time>2010-02-14T15:46:18Z</time>
      </trkpt>
      <trkpt lat="47.81679" lon="3.28435">
        <ele>223</ele>
        <time>2010-02-14T15:46:26Z</time>
      </trkpt>
      <trkpt lat="47.81681" lon="3.28421">
        <ele>223</ele>
        <time>2010-02-14T15:46:50Z</time>
      </trkpt>
      <trkpt lat="47.81692" lon="3.28418">
        <ele>218</ele>
        <time>2010-02-14T15:46:59Z</time>
      </trkpt>
      <trkpt lat="47.81701" lon="3.28412">
        <ele>218</ele>
        <time>2010-02-14T15:47:16Z</time>
      </trkpt>
      <trkpt lat="47.81711" lon="3.28409">
        <ele>218</ele>
        <time>2010-02-14T15:47:26Z</time>
      </trkpt>
      <trkpt lat="47.8172" lon="3.28405">
        <ele>218</ele>
        <time>2010-02-14T15:47:36Z</time>
      </trkpt>
      <trkpt lat="47.81729" lon="3.28401">
        <ele>218</ele>
        <time>2010-02-14T15:47:45Z</time>
      </trkpt>
      <trkpt lat="47.81739" lon="3.28398">
        <ele>218</ele>
        <time>2010-02-14T15:47:59Z</time>
      </trkpt>
      <trkpt lat="47.81748" lon="3.28396">
        <ele>218</ele>
        <time>2010-02-14T15:48:13Z</time>
      </trkpt>
      <trkpt lat="47.81759" lon="3.28397">
        <ele>218</ele>
        <time>2010-02-14T15:48:28Z</time>
      </trkpt>
      <trkpt lat="47.81768" lon="3.28398">
        <ele>212</ele>
        <time>2010-02-14T15:48:37Z</time>
      </trkpt>
      <trkpt lat="47.81778" lon="3.28398">
        <ele>212</ele>
        <time>2010-02-14T15:48:49Z</time>
      </trkpt>
      <trkpt lat="47.81787" lon="3.28404">
        <ele>212</ele>
        <time>2010-02-14T15:48:59Z</time>
      </trkpt>
      <trkpt lat="47.81797" lon="3.28408">
        <ele>212</ele>
        <time>2010-02-14T15:49:14Z</time>
      </trkpt>
      <trkpt lat="47.81807" lon="3.28414">
        <ele>212</ele>
        <time>2010-02-14T15:49:23Z</time>
      </trkpt>
      <trkpt lat="47.81816" lon="3.28422">
        <ele>212</ele>
        <time>2010-02-14T15:49:34Z</time>
      </trkpt>
      <trkpt lat="47.81823" lon="3.28431">
        <ele>212</ele>
        <time>2010-02-14T15:49:44Z</time>
      </trkpt>
      <trkpt lat="47.81832" lon="3.28439">
        <ele>206</ele>
        <time>2010-02-14T15:49:53Z</time>
      </trkpt>
      <trkpt lat="47.81839" lon="3.28448">
        <ele>206</ele>
        <time>2010-02-14T15:50:05Z</time>
      </trkpt>
      <trkpt lat="47.81843" lon="3.28461">
        <ele>213</ele>
        <time>2010-02-14T15:51:37Z</time>
      </trkpt>
      <trkpt lat="47.81841" lon="3.28475">
        <ele>213</ele>
        <time>2010-02-14T15:51:50Z</time>
      </trkpt>
      <trkpt lat="47.81841" lon="3.2849">
        <ele>213</ele>
        <time>2010-02-14T15:52:08Z</time>
      </trkpt>
      <trkpt lat="47.8184" lon="3.28504">
        <ele>213</ele>
        <time>2010-02-14T15:52:17Z</time>
      </trkpt>
      <trkpt lat="47.8184" lon="3.28519">
        <ele>213</ele>
        <time>2010-02-14T15:52:26Z</time>
      </trkpt>
      <trkpt lat="47.81839" lon="3.28534">
        <ele>213</ele>
        <time>2010-02-14T15:52:34Z</time>
      </trkpt>
      <trkpt lat="47.81836" lon="3.28548">
        <ele>213</ele>
        <time>2010-02-14T15:52:42Z</time>
      </trkpt>
      <trkpt lat="47.8184" lon="3.28562">
        <ele>213</ele>
        <time>2010-02-14T15:52:53Z</time>
      </trkpt>
      <trkpt lat="47.81839" lon="3.28577">
        <ele>213</ele>
        <time>2010-02-14T15:53:02Z</time>
      </trkpt>
      <trkpt lat="47.81841" lon="3.2859">
        <ele>213</ele>
        <time>2010-02-14T15:53:11Z</time>
      </trkpt>
      <trkpt lat="47.81843" lon="3.28604">
        <ele>218</ele>
        <time>2010-02-14T15:53:23Z</time>
      </trkpt>
      <trkpt lat="47.81843" lon="3.28619">
        <ele>218</ele>
        <time>2010-02-14T15:53:32Z</time>
      </trkpt>
      <trkpt lat="47.81843" lon="3.28633">
        <ele>218</ele>
        <time>2010-02-14T15:53:46Z</time>
      </trkpt>
      <trkpt lat="47.81847" lon="3.28648">
        <ele>218</ele>
        <time>2010-02-14T15:53:59Z</time>
      </trkpt>
      <trkpt lat="47.8185" lon="3.28661">
        <ele>218</ele>
        <time>2010-02-14T15:54:10Z</time>
      </trkpt>
      <trkpt lat="47.81852" lon="3.28676">
        <ele>218</ele>
        <time>2010-02-14T15:54:20Z</time>
      </trkpt>
      <trkpt lat="47.81851" lon="3.2869">
        <ele>218</ele>
        <time>2010-02-14T15:54:31Z</time>
      </trkpt>
      <trkpt lat="47.81852" lon="3.28704">
        <ele>218</ele>
        <time>2010-02-14T15:54:43Z</time>
      </trkpt>
      <trkpt lat="47.81853" lon="3.28719">
        <ele>218</ele>
        <time>2010-02-14T15:54:54Z</time>
      </trkpt>
      <trkpt lat="47.81855" lon="3.28733">
        <ele>218</ele>
        <time>2010-02-14T15:55:07Z</time>
      </trkpt>
      <trkpt lat="47.81858" lon="3.28748">
        <ele>218</ele>
        <time>2010-02-14T15:55:18Z</time>
      </trkpt>
      <trkpt lat="47.81861" lon="3.28762">
        <ele>218</ele>
        <time>2010-02-14T15:55:29Z</time>
      </trkpt>
      <trkpt lat="47.81866" lon="3.28775">
        <ele>218</ele>
        <time>2010-02-14T15:55:40Z</time>
      </trkpt>
      <trkpt lat="47.81868" lon="3.28791">
        <ele>224</ele>
        <time>2010-02-14T15:55:59Z</time>
      </trkpt>
      <trkpt lat="47.81871" lon="3.28804">
        <ele>224</ele>
        <time>2010-02-14T15:56:07Z</time>
      </trkpt>
      <trkpt lat="47.81876" lon="3.28818">
        <ele>224</ele>
        <time>2010-02-14T15:56:18Z</time>
      </trkpt>
      <trkpt lat="47.8188" lon="3.2883">
        <ele>224</ele>
        <time>2010-02-14T15:56:28Z</time>
      </trkpt>
      <trkpt lat="47.81885" lon="3.28843">
        <ele>224</ele>
        <time>2010-02-14T15:56:38Z</time>
      </trkpt>
      <trkpt lat="47.81888" lon="3.28856">
        <ele>224</ele>
        <time>2010-02-14T15:56:48Z</time>
      </trkpt>
      <trkpt lat="47.81892" lon="3.2887">
        <ele>229</ele>
        <time>2010-02-14T15:56:59Z</time>
      </trkpt>
      <trkpt lat="47.81895" lon="3.28883">
        <ele>229</ele>
        <time>2010-02-14T15:57:08Z</time>
      </trkpt>
      <trkpt lat="47.81898" lon="3.28898">
        <ele>229</ele>
        <time>2010-02-14T15:57:18Z</time>
      </trkpt>
      <trkpt lat="47.81902" lon="3.28912">
        <ele>229</ele>
        <time>2010-02-14T15:57:28Z</time>
      </trkpt>
      <trkpt lat="47.81904" lon="3.28926">
        <ele>229</ele>
        <time>2010-02-14T15:57:37Z</time>
      </trkpt>
      <trkpt lat="47.81909" lon="3.2894">
        <ele>229</ele>
        <time>2010-02-14T15:57:47Z</time>
      </trkpt>
      <trkpt lat="47.8191" lon="3.28954">
        <ele>229</ele>
        <time>2010-02-14T15:57:56Z</time>
      </trkpt>
      <trkpt lat="47.8191" lon="3.28968">
        <ele>229</ele>
        <time>2010-02-14T15:58:06Z</time>
      </trkpt>
      <trkpt lat="47.81911" lon="3.28983">
        <ele>235</ele>
        <time>2010-02-14T15:58:15Z</time>
      </trkpt>
      <trkpt lat="47.81911" lon="3.28997">
        <ele>235</ele>
        <time>2010-02-14T15:58:24Z</time>
      </trkpt>
      <trkpt lat="47.81917" lon="3.29011">
        <ele>235</ele>
        <time>2010-02-14T15:58:40Z</time>
      </trkpt>
      <trkpt lat="47.81917" lon="3.29025">
        <ele>235</ele>
        <time>2010-02-14T15:58:51Z</time>
      </trkpt>
      <trkpt lat="47.81919" lon="3.29039">
        <ele>235</ele>
        <time>2010-02-14T15:59:01Z</time>
      </trkpt>
      <trkpt lat="47.81918" lon="3.29053">
        <ele>235</ele>
        <time>2010-02-14T15:59:12Z</time>
      </trkpt>
      <trkpt lat="47.81922" lon="3.29067">
        <ele>235</ele>
        <time>2010-02-14T15:59:25Z</time>
      </trkpt>
      <trkpt lat="47.81924" lon="3.29082">
        <ele>235</ele>
        <time>2010-02-14T15:59:35Z</time>
      </trkpt>
      <trkpt lat="47.81924" lon="3.29097">
        <ele>235</ele>
        <time>2010-02-14T15:59:45Z</time>
      </trkpt>
      <trkpt lat="47.81925" lon="3.29112">
        <ele>235</ele>
        <time>2010-02-14T15:59:58Z</time>
      </trkpt>
      <trkpt lat="47.81926" lon="3.29127">
        <ele>235</ele>
        <time>2010-02-14T16:00:07Z</time>
      </trkpt>
      <trkpt lat="47.81931" lon="3.29142">
        <ele>235</ele>
        <time>2010-02-14T16:00:18Z</time>
      </trkpt>
      <trkpt lat="47.8193" lon="3.29157">
        <ele>243</ele>
        <time>2010-02-14T16:00:29Z</time>
      </trkpt>
      <trkpt lat="47.81932" lon="3.29171">
        <ele>243</ele>
        <time>2010-02-14T16:00:38Z</time>
      </trkpt>
      <trkpt lat="47.81933" lon="3.29185">
        <ele>243</ele>
        <time>2010-02-14T16:00:50Z</time>
      </trkpt>
      <trkpt lat="47.81934" lon="3.29199">
        <ele>243</ele>
        <time>2010-02-14T16:01:02Z</time>
      </trkpt>
      <trkpt lat="47.81935" lon="3.29214">
        <ele>243</ele>
        <time>2010-02-14T16:01:16Z</time>
      </trkpt>
      <trkpt lat="47.81937" lon="3.29228">
        <ele>243</ele>
        <time>2010-02-14T16:01:24Z</time>
      </trkpt>
      <trkpt lat="47.81935" lon="3.29242">
        <ele>243</ele>
        <time>2010-02-14T16:01:37Z</time>
      </trkpt>
      <trkpt lat="47.81931" lon="3.29256">
        <ele>250</ele>
        <time>2010-02-14T16:01:46Z</time>
      </trkpt>
      <trkpt lat="47.81937" lon="3.29267">
        <ele>250</ele>
        <time>2010-02-14T16:02:00Z</time>
      </trkpt>
      <trkpt lat="47.81943" lon="3.29278">
        <ele>250</ele>
        <time>2010-02-14T16:02:08Z</time>
      </trkpt>
      <trkpt lat="47.81943" lon="3.29292">
        <ele>250</ele>
        <time>2010-02-14T16:02:17Z</time>
      </trkpt>
      <trkpt lat="47.8194" lon="3.29305">
        <ele>242</ele>
        <time>2010-02-14T16:02:27Z</time>
      </trkpt>
      <trkpt lat="47.81938" lon="3.2932">
        <ele>242</ele>
        <time>2010-02-14T16:02:36Z</time>
      </trkpt>
      <trkpt lat="47.81938" lon="3.29334">
        <ele>242</ele>
        <time>2010-02-14T16:02:51Z</time>
      </trkpt>
      <trkpt lat="47.8194" lon="3.29348">
        <ele>242</ele>
        <time>2010-02-14T16:03:00Z</time>
      </trkpt>
      <trkpt lat="47.81936" lon="3.29361">
        <ele>247</ele>
        <time>2010-02-14T16:03:10Z</time>
      </trkpt>
      <trkpt lat="47.81943" lon="3.29374">
        <ele>247</ele>
        <time>2010-02-14T16:03:16Z</time>
      </trkpt>
      <trkpt lat="47.81943" lon="3.29389">
        <ele>247</ele>
        <time>2010-02-14T16:03:26Z</time>
      </trkpt>
      <trkpt lat="47.81945" lon="3.29402">
        <ele>247</ele>
        <time>2010-02-14T16:03:35Z</time>
      </trkpt>
      <trkpt lat="47.81941" lon="3.29417">
        <ele>247</ele>
        <time>2010-02-14T16:03:44Z</time>
      </trkpt>
      <trkpt lat="47.81943" lon="3.29431">
        <ele>254</ele>
        <time>2010-02-14T16:03:55Z</time>
      </trkpt>
      <trkpt lat="47.81941" lon="3.29446">
        <ele>254</ele>
        <time>2010-02-14T16:04:06Z</time>
      </trkpt>
      <trkpt lat="47.81941" lon="3.2946">
        <ele>254</ele>
        <time>2010-02-14T16:04:13Z</time>
      </trkpt>
      <trkpt lat="47.81939" lon="3.29473">
        <ele>248</ele>
        <time>2010-02-14T16:04:29Z</time>
      </trkpt>
      <trkpt lat="47.81939" lon="3.2949">
        <ele>248</ele>
        <time>2010-02-14T16:04:39Z</time>
      </trkpt>
      <trkpt lat="47.81938" lon="3.29505">
        <ele>248</ele>
        <time>2010-02-14T16:04:47Z</time>
      </trkpt>
      <trkpt lat="47.8194" lon="3.2952">
        <ele>248</ele>
        <time>2010-02-14T16:04:57Z</time>
      </trkpt>
      <trkpt lat="47.81941" lon="3.29534">
        <ele>248</ele>
        <time>2010-02-14T16:05:07Z</time>
      </trkpt>
      <trkpt lat="47.8194" lon="3.29549">
        <ele>248</ele>
        <time>2010-02-14T16:05:24Z</time>
      </trkpt>
      <trkpt lat="47.81942" lon="3.29565">
        <ele>248</ele>
        <time>2010-02-14T16:05:35Z</time>
      </trkpt>
      <trkpt lat="47.81941" lon="3.29579">
        <ele>238</ele>
        <time>2010-02-14T16:05:47Z</time>
      </trkpt>
      <trkpt lat="47.81943" lon="3.29594">
        <ele>238</ele>
        <time>2010-02-14T16:06:00Z</time>
      </trkpt>
      <trkpt lat="47.81945" lon="3.29607">
        <ele>238</ele>
        <time>2010-02-14T16:06:08Z</time>
      </trkpt>
      <trkpt lat="47.81943" lon="3.29622">
        <ele>238</ele>
        <time>2010-02-14T16:06:21Z</time>
      </trkpt>
      <trkpt lat="47.81943" lon="3.29636">
        <ele>238</ele>
        <time>2010-02-14T16:06:30Z</time>
      </trkpt>
      <trkpt lat="47.81944" lon="3.29651">
        <ele>243</ele>
        <time>2010-02-14T16:06:39Z</time>
      </trkpt>
      <trkpt lat="47.81941" lon="3.29666">
        <ele>243</ele>
        <time>2010-02-14T16:06:52Z</time>
      </trkpt>
      <trkpt lat="47.8194" lon="3.2968">
        <ele>243</ele>
        <time>2010-02-14T16:07:05Z</time>
      </trkpt>
      <trkpt lat="47.81941" lon="3.29694">
        <ele>243</ele>
        <time>2010-02-14T16:07:13Z</time>
      </trkpt>
      <trkpt lat="47.81941" lon="3.2971">
        <ele>243</ele>
        <time>2010-02-14T16:07:24Z</time>
      </trkpt>
      <trkpt lat="47.81941" lon="3.29725">
        <ele>243</ele>
        <time>2010-02-14T16:07:33Z</time>
      </trkpt>
      <trkpt lat="47.81943" lon="3.2974">
        <ele>243</ele>
        <time>2010-02-14T16:07:55Z</time>
      </trkpt>
      <trkpt lat="47.81943" lon="3.29755">
        <ele>243</ele>
        <time>2010-02-14T16:08:06Z</time>
      </trkpt>
      <trkpt lat="47.81943" lon="3.2977">
        <ele>243</ele>
        <time>2010-02-14T16:08:17Z</time>
      </trkpt>
      <trkpt lat="47.81943" lon="3.29785">
        <ele>243</ele>
        <time>2010-02-14T16:08:27Z</time>
      </trkpt>
      <trkpt lat="47.81946" lon="3.29799">
        <ele>252</ele>
        <time>2010-02-14T16:08:36Z</time>
      </trkpt>
      <trkpt lat="47.81946" lon="3.29813">
        <ele>252</ele>
        <time>2010-02-14T16:08:46Z</time>
      </trkpt>
      <trkpt lat="47.81946" lon="3.29827">
        <ele>252</ele>
        <time>2010-02-14T16:08:57Z</time>
      </trkpt>
      <trkpt lat="47.81946" lon="3.29843">
        <ele>246</ele>
        <time>2010-02-14T16:09:08Z</time>
      </trkpt>
      <trkpt lat="47.81947" lon="3.29857">
        <ele>246</ele>
        <time>2010-02-14T16:09:18Z</time>
      </trkpt>
      <trkpt lat="47.81948" lon="3.29871">
        <ele>246</ele>
        <time>2010-02-14T16:09:28Z</time>
      </trkpt>
      <trkpt lat="47.81951" lon="3.29885">
        <ele>246</ele>
        <time>2010-02-14T16:09:40Z</time>
      </trkpt>
      <trkpt lat="47.81954" lon="3.29898">
        <ele>238</ele>
        <time>2010-02-14T16:09:51Z</time>
      </trkpt>
      <trkpt lat="47.81954" lon="3.29913">
        <ele>238</ele>
        <time>2010-02-14T16:10:00Z</time>
      </trkpt>
      <trkpt lat="47.81956" lon="3.29927">
        <ele>238</ele>
        <time>2010-02-14T16:10:12Z</time>
      </trkpt>
      <trkpt lat="47.81957" lon="3.29942">
        <ele>238</ele>
        <time>2010-02-14T16:10:21Z</time>
      </trkpt>
      <trkpt lat="47.81957" lon="3.29957">
        <ele>238</ele>
        <time>2010-02-14T16:10:31Z</time>
      </trkpt>
      <trkpt lat="47.81958" lon="3.29971">
        <ele>238</ele>
        <time>2010-02-14T16:10:42Z</time>
      </trkpt>
      <trkpt lat="47.8196" lon="3.29985">
        <ele>238</ele>
        <time>2010-02-14T16:10:51Z</time>
      </trkpt>
      <trkpt lat="47.81962" lon="3.3">
        <ele>233</ele>
        <time>2010-02-14T16:11:03Z</time>
      </trkpt>
      <trkpt lat="47.81962" lon="3.30014">
        <ele>233</ele>
        <time>2010-02-14T16:11:14Z</time>
      </trkpt>
      <trkpt lat="47.81962" lon="3.30029">
        <ele>233</ele>
        <time>2010-02-14T16:11:24Z</time>
      </trkpt>
      <trkpt lat="47.81963" lon="3.30044">
        <ele>233</ele>
        <time>2010-02-14T16:11:36Z</time>
      </trkpt>
      <trkpt lat="47.81965" lon="3.30058">
        <ele>233</ele>
        <time>2010-02-14T16:11:45Z</time>
      </trkpt>
      <trkpt lat="47.81966" lon="3.30073">
        <ele>228</ele>
        <time>2010-02-14T16:11:55Z</time>
      </trkpt>
      <trkpt lat="47.81964" lon="3.30088">
        <ele>228</ele>
        <time>2010-02-14T16:12:02Z</time>
      </trkpt>
      <trkpt lat="47.81964" lon="3.30102">
        <ele>228</ele>
        <time>2010-02-14T16:12:13Z</time>
      </trkpt>
      <trkpt lat="47.81965" lon="3.30117">
        <ele>228</ele>
        <time>2010-02-14T16:12:36Z</time>
      </trkpt>
      <trkpt lat="47.81967" lon="3.30132">
        <ele>228</ele>
        <time>2010-02-14T16:12:48Z</time>
      </trkpt>
      <trkpt lat="47.81971" lon="3.30146">
        <ele>228</ele>
        <time>2010-02-14T16:13:01Z</time>
      </trkpt>
      <trkpt lat="47.81972" lon="3.30161">
        <ele>228</ele>
        <time>2010-02-14T16:13:11Z</time>
      </trkpt>
      <trkpt lat="47.81974" lon="3.30175">
        <ele>222</ele>
        <time>2010-02-14T16:13:21Z</time>
      </trkpt>
      <trkpt lat="47.81978" lon="3.30189">
        <ele>222</ele>
        <time>2010-02-14T16:13:33Z</time>
      </trkpt>
      <trkpt lat="47.81978" lon="3.30204">
        <ele>222</ele>
        <time>2010-02-14T16:13:40Z</time>
      </trkpt>
      <trkpt lat="47.81979" lon="3.30219">
        <ele>222</ele>
        <time>2010-02-14T16:13:49Z</time>
      </trkpt>
      <trkpt lat="47.81984" lon="3.30232">
        <ele>222</ele>
        <time>2010-02-14T16:14:01Z</time>
      </trkpt>
      <trkpt lat="47.81987" lon="3.30246">
        <ele>222</ele>
        <time>2010-02-14T16:14:11Z</time>
      </trkpt>
      <trkpt lat="47.81992" lon="3.30259">
        <ele>222</ele>
        <time>2010-02-14T16:14:23Z</time>
      </trkpt>
      <trkpt lat="47.81995" lon="3.30273">
        <ele>222</ele>
        <time>2010-02-14T16:14:31Z</time>
      </trkpt>
      <trkpt lat="47.82001" lon="3.30284">
        <ele>222</ele>
        <time>2010-02-14T16:14:40Z</time>
      </trkpt>
      <trkpt lat="47.82004" lon="3.30297">
        <ele>222</ele>
        <time>2010-02-14T16:14:51Z</time>
      </trkpt>
      <trkpt lat="47.82003" lon="3.30311">
        <ele>215</ele>
        <time>2010-02-14T16:15:05Z</time>
      </trkpt>
      <trkpt lat="47.81996" lon="3.3032">
        <ele>215</ele>
        <time>2010-02-14T16:15:21Z</time>
      </trkpt>
      <trkpt lat="47.81989" lon="3.30332">
        <ele>215</ele>
        <time>2010-02-14T16:15:39Z</time>
      </trkpt>
      <trkpt lat="47.81986" lon="3.30346">
        <ele>215</ele>
        <time>2010-02-14T16:15:52Z</time>
      </trkpt>
      <trkpt lat="47.81984" lon="3.3036">
        <ele>215</ele>
        <time>2010-02-14T16:16:03Z</time>
      </trkpt>
      <trkpt lat="47.81981" lon="3.30373">
        <ele>215</ele>
        <time>2010-02-14T16:16:15Z</time>
      </trkpt>
      <trkpt lat="47.81981" lon="3.30388">
        <ele>215</ele>
        <time>2010-02-14T16:16:25Z</time>
      </trkpt>
      <trkpt lat="47.81981" lon="3.30402">
        <ele>208</ele>
        <time>2010-02-14T16:16:35Z</time>
      </trkpt>
      <trkpt lat="47.81979" lon="3.30417">
        <ele>208</ele>
        <time>2010-02-14T16:16:43Z</time>
      </trkpt>
      <trkpt lat="47.81976" lon="3.3043">
        <ele>208</ele>
        <time>2010-02-14T16:16:54Z</time>
      </trkpt>
      <trkpt lat="47.81974" lon="3.30444">
        <ele>208</ele>
        <time>2010-02-14T16:17:07Z</time>
      </trkpt>
      <trkpt lat="47.81972" lon="3.30459">
        <ele>217</ele>
        <time>2010-02-14T16:17:19Z</time>
      </trkpt>
      <trkpt lat="47.81968" lon="3.30472">
        <ele>217</ele>
        <time>2010-02-14T16:17:27Z</time>
      </trkpt>
      <trkpt lat="47.81967" lon="3.30487">
        <ele>217</ele>
        <time>2010-02-14T16:17:37Z</time>
      </trkpt>
      <trkpt lat="47.81967" lon="3.30502">
        <ele>217</ele>
        <time>2010-02-14T16:17:47Z</time>
      </trkpt>
      <trkpt lat="47.81966" lon="3.30516">
        <ele>217</ele>
        <time>2010-02-14T16:18:02Z</time>
      </trkpt>
      <trkpt lat="47.81963" lon="3.30532">
        <ele>217</ele>
        <time>2010-02-14T16:18:16Z</time>
      </trkpt>
      <trkpt lat="47.81961" lon="3.30546">
        <ele>217</ele>
        <time>2010-02-14T16:18:23Z</time>
      </trkpt>
      <trkpt lat="47.81961" lon="3.3056">
        <ele>217</ele>
        <time>2010-02-14T16:18:36Z</time>
      </trkpt>
      <trkpt lat="47.8196" lon="3.30575">
        <ele>217</ele>
        <time>2010-02-14T16:18:47Z</time>
      </trkpt>
      <trkpt lat="47.81961" lon="3.30589">
        <ele>217</ele>
        <time>2010-02-14T16:19:05Z</time>
      </trkpt>
      <trkpt lat="47.81963" lon="3.30603">
        <ele>217</ele>
        <time>2010-02-14T16:19:19Z</time>
      </trkpt>
      <trkpt lat="47.81968" lon="3.30616">
        <ele>217</ele>
        <time>2010-02-14T16:19:30Z</time>
      </trkpt>
      <trkpt lat="47.81974" lon="3.30629">
        <ele>217</ele>
        <time>2010-02-14T16:19:41Z</time>
      </trkpt>
      <trkpt lat="47.81978" lon="3.30641">
        <ele>217</ele>
        <time>2010-02-14T16:19:54Z</time>
      </trkpt>
      <trkpt lat="47.8198" lon="3.30656">
        <ele>217</ele>
        <time>2010-02-14T16:20:05Z</time>
      </trkpt>
      <trkpt lat="47.81986" lon="3.30666">
        <ele>223</ele>
        <time>2010-02-14T16:20:17Z</time>
      </trkpt>
      <trkpt lat="47.81989" lon="3.3068">
        <ele>223</ele>
        <time>2010-02-14T16:20:29Z</time>
      </trkpt>
      <trkpt lat="47.81994" lon="3.30694">
        <ele>223</ele>
        <time>2010-02-14T16:20:41Z</time>
      </trkpt>
      <trkpt lat="47.81997" lon="3.30709">
        <ele>223</ele>
        <time>2010-02-14T16:20:54Z</time>
      </trkpt>
      <trkpt lat="47.81998" lon="3.30724">
        <ele>223</ele>
        <time>2010-02-14T16:21:08Z</time>
      </trkpt>
      <trkpt lat="47.82001" lon="3.30737">
        <ele>223</ele>
        <time>2010-02-14T16:21:18Z</time>
      </trkpt>
      <trkpt lat="47.8201" lon="3.30743">
        <ele>223</ele>
        <time>2010-02-14T16:21:30Z</time>
      </trkpt>
      <trkpt lat="47.82018" lon="3.30749">
        <ele>223</ele>
        <time>2010-02-14T16:21:41Z</time>
      </trkpt>
      <trkpt lat="47.82027" lon="3.30757">
        <ele>223</ele>
        <time>2010-02-14T16:21:52Z</time>
      </trkpt>
      <trkpt lat="47.82036" lon="3.30762">
        <ele>223</ele>
        <time>2010-02-14T16:22:06Z</time>
      </trkpt>
      <trkpt lat="47.82045" lon="3.30765">
        <ele>223</ele>
        <time>2010-02-14T16:22:19Z</time>
      </trkpt>
      <trkpt lat="47.82053" lon="3.30773">
        <ele>223</ele>
        <time>2010-02-14T16:22:32Z</time>
      </trkpt>
      <trkpt lat="47.82063" lon="3.30776">
        <ele>223</ele>
        <time>2010-02-14T16:22:43Z</time>
      </trkpt>
      <trkpt lat="47.82072" lon="3.3078">
        <ele>223</ele>
        <time>2010-02-14T16:22:54Z</time>
      </trkpt>
      <trkpt lat="47.82081" lon="3.30785">
        <ele>223</ele>
        <time>2010-02-14T16:23:05Z</time>
      </trkpt>
      <trkpt lat="47.82092" lon="3.30789">
        <ele>223</ele>
        <time>2010-02-14T16:23:15Z</time>
      </trkpt>
      <trkpt lat="47.82101" lon="3.30796">
        <ele>223</ele>
        <time>2010-02-14T16:23:28Z</time>
      </trkpt>
      <trkpt lat="47.8211" lon="3.30801">
        <ele>223</ele>
        <time>2010-02-14T16:23:39Z</time>
      </trkpt>
      <trkpt lat="47.82116" lon="3.30813">
        <ele>223</ele>
        <time>2010-02-14T16:23:52Z</time>
      </trkpt>
      <trkpt lat="47.82123" lon="3.30823">
        <ele>216</ele>
        <time>2010-02-14T16:24:03Z</time>
      </trkpt>
      <trkpt lat="47.82131" lon="3.30831">
        <ele>216</ele>
        <time>2010-02-14T16:24:17Z</time>
      </trkpt>
      <trkpt lat="47.82139" lon="3.30839">
        <ele>210</ele>
        <time>2010-02-14T16:24:35Z</time>
      </trkpt>
      <trkpt lat="47.82148" lon="3.30845">
        <ele>210</ele>
        <time>2010-02-14T16:24:42Z</time>
      </trkpt>
      <trkpt lat="47.82157" lon="3.30849">
        <ele>210</ele>
        <time>2010-02-14T16:24:50Z</time>
      </trkpt>
      <trkpt lat="47.82167" lon="3.30854">
        <ele>217</ele>
        <time>2010-02-14T16:25:30Z</time>
      </trkpt>
      <trkpt lat="47.82177" lon="3.30858">
        <ele>211</ele>
        <time>2010-02-14T16:26:01Z</time>
      </trkpt>
    </trkseg>
  </trk>
</gpx>